• Join FlightAware (Why Join?)
  • Login
  • US Flag 
07:51PM EDT


 

Airport Tracker/Info


-or-


 

Live Flight TrackerFlight Track Log ✈ UAL1145 ✈ 17-Apr-2013 ✈ KLAS - KIAH

Flight Track Log - Related Links

Times and Time Zones

All times are in EDT time to prevent confusion due to time zone crossing. See the UAL1145 flight status page for this flight to view local times or setup timezone preferences in your user account.

Time Position Orientation Groundspeed Altitude Reporting Facility
EDT Latitude Longitude Course Direction KTS MPH feet Rate Location/Type
08:15PM 36.1086 -115.1494 45° Northeast 165 190 3,600  Level Los Angeles Center
08:15PM 36.1292 -115.1242 45° Northeast 216 249 4,500 2,520 Climbing Los Angeles Center
08:16PM 36.1367 -115.0389 84° East 265 305 7,400 2,700 Climbing Los Angeles Center
08:17PM 36.1458 -114.9397 83° East 284 327 10,000 2,400 Climbing Los Angeles Center
08:18PM 36.1239 -114.8244 103° East 346 398 12,400 2,580 Climbing Los Angeles Center
08:20PM 36.0983 -114.7011 104° East 368 423 15,400 2,220 Climbing Los Angeles Center
08:21PM 36.0689 -114.5697 105° East 395 455 17,100 1,980 Climbing Los Angeles Center
08:22PM 36.0319 -114.3983 105° East 431 496 19,600 2,100 Climbing Los Angeles Center
08:23PM 35.9994 -114.2475 105° East 450 518 21,500 1,740 Climbing Los Angeles Center
08:24PM 35.9650 -114.0925 105° East 466 536 23,300 1,500 Climbing Los Angeles Center
08:25PM 35.9292 -113.9314 105° East 483 556 24,700 1,200 Climbing Los Angeles Center
08:26PM 35.8933 -113.7644 105° East 499 574 25,900 1,200 Climbing Los Angeles Center
08:27PM 35.8553 -113.5694 103° East 515 593 27,300 1,320 Climbing Los Angeles Center
08:28PM 35.8181 -113.3919 104° East 531 611 28,700 1,320 Climbing Los Angeles Center
08:29PM 35.7814 -113.2133 104° East 535 616 30,100 1,680 Climbing Los Angeles Center
08:30PM 35.7444 -113.0361 104° East 533 613 32,200 1,440 Climbing Los Angeles Center
08:31PM 35.7067 -112.8611 105° East 527 606 33,100 600 Climbing Los Angeles Center
08:32PM 35.6644 -112.6628 105° East 542 624 33,500 540 Climbing Los Angeles Center
08:33PM 35.6281 -112.4919 105° East 558 642 34,300 720 Climbing Los Angeles Center
08:34PM 35.5808 -112.3075 107° East 565 650 35,000 300 Climbing Albuquerque Center
08:35PM 35.5186 -112.1319 113° Southeast 565 650 35,000  Level Albuquerque Center
08:36PM 35.4481 -111.9681 118° Southeast 547 629 35,000  Level Albuquerque Center
08:37PM 35.3594 -111.8214 127° Southeast 537 618 35,000  Level Albuquerque Center
08:38PM 35.2644 -111.6625 126° Southeast 540 621 35,000  Level Albuquerque Center
08:39PM 35.1761 -111.5147 126° Southeast 538 619 35,000  Level Albuquerque Center
08:40PM 35.0703 -111.3358 126° Southeast 540 621 35,000  Level Albuquerque Center
08:41PM 34.9800 -111.1881 127° Southeast 541 623 35,000  Level Albuquerque Center
08:42PM 34.8917 -111.0392 126° Southeast 541 623 35,000 300 Level Albuquerque Center
08:43PM 34.8014 -110.8914 127° Southeast 543 625 35,700 720 Climbing Albuquerque Center
08:44PM 34.7125 -110.7475 127° Southeast 537 618 36,600 600 Climbing Albuquerque Center
08:45PM 34.6169 -110.5861 126° Southeast 529 609 37,000 180 Climbing Albuquerque Center
08:46PM 34.5372 -110.4578 127° Southeast 532 612 37,000  Level Albuquerque Center
08:47PM 34.4294 -110.2808 126° Southeast 543 625 37,000  Level Albuquerque Center
08:48PM 34.3428 -110.1411 127° Southeast 544 626 37,000  Level Albuquerque Center
08:49PM 34.2419 -109.9772 127° Southeast 544 626 37,000  Level Albuquerque Center
08:50PM 34.1544 -109.8389 127° Southeast 543 625 37,000  Level Albuquerque Center
08:51PM 34.0522 -109.6750 127° Southeast 545 627 37,000  Level Albuquerque Center
08:52PM 33.9700 -109.5439 127° Southeast 545 627 37,000  Level Albuquerque Center
08:54PM 33.8711 -109.4088 131° Southeast  Level FlightAware Approximate
08:55PM 33.7853 -109.2522 131° Southeast 551 634 37,000  Level Albuquerque Center
08:56PM 33.6733 -109.0781 128° Southeast 552 635 37,000  Level Albuquerque Center
08:57PM 33.5808 -108.9333 127° Southeast 549 632 37,000  Level Albuquerque Center
08:58PM 33.4872 -108.7872 128° Southeast 552 635 37,000  Level Albuquerque Center
08:59PM 33.3925 -108.6408 128° Southeast 555 639 37,000  Level Albuquerque Center
09:00PM 33.2975 -108.4956 128° Southeast 554 638 37,000  Level Albuquerque Center
09:01PM 33.2019 -108.3489 128° Southeast 558 642 37,000  Level Albuquerque Center
09:02PM 33.0869 -108.1731 128° Southeast 561 646 37,000  Level Albuquerque Center
09:03PM 32.9969 -108.0372 128° Southeast 560 644 37,000 -60 Level Albuquerque Center
09:04PM 32.9003 -107.8911 128° Southeast 561 646 36,900  Descending Albuquerque Center
09:05PM 32.8056 -107.7469 128° Southeast 557 641 37,000  Climbing Albuquerque Center
09:06PM 32.7319 -107.5353 112° Southeast 574 661 37,000  Level Albuquerque Center
09:07PM 32.6886 -107.3822 109° East 582 670 37,000  Level Albuquerque Center
09:08PM 32.6281 -107.1731 109° East 578 665 37,000  Level Albuquerque Center
09:09PM 32.5706 -106.9856 110° East 567 652 37,000 -540 Level Albuquerque Center
09:10PM 32.5206 -106.8114 109° East 564 649 36,000 -1,080 Descending Albuquerque Center
09:11PM 32.4650 -106.6294 110° East 582 670 34,900 -540 Descending Albuquerque Center
09:12PM 32.4078 -106.4431 110° East 599 689 35,000  Climbing Albuquerque Center
09:13PM 32.3417 -106.2286 110° East 603 694 35,000  Level Albuquerque Center
09:14PM 32.2936 -106.0711 110° East 597 687 35,000 -60 Level Albuquerque Center
09:15PM 32.2367 -105.8892 110° East 592 681 34,900  Descending Albuquerque Center
09:16PM 32.1686 -105.6725 110° East 588 677 35,000  Climbing Albuquerque Center
09:17PM 32.1117 -105.4903 110° East 590 679 34,900  Descending Albuquerque Center
09:18PM 32.0547 -105.3089 110° East 590 679 35,000  Climbing Albuquerque Center
09:19PM 31.9969 -105.1300 111° Southeast 585 673 34,900  Descending Albuquerque Center
09:20PM 31.9389 -104.9467 110° East 592 681 35,000  Climbing Albuquerque Center
09:21PM 31.8811 -104.7636 110° East 594 684 34,900  Descending Albuquerque Center
09:22PM 31.8225 -104.5831 111° Southeast 592 681 35,000  Climbing Albuquerque Center
09:23PM 31.7636 -104.4022 111° Southeast 591 680 34,900 -60 Descending Albuquerque Center
09:24PM 31.6933 -104.1881 111° Southeast 589 678 34,900  Level Albuquerque Center
09:25PM 31.6347 -104.0108 111° Southeast 585 673 35,000  Climbing Albuquerque Center
09:26PM 31.5767 -103.8292 111° Southeast 588 677 34,900  Descending Albuquerque Center
09:27PM 31.5169 -103.6533 112° Southeast 587 676 35,000  Climbing Albuquerque Center
09:29PM 31.4550 -103.4733 112° Southeast 592 681 35,000 -60 Level Albuquerque Center
09:30PM 31.3936 -103.2944 112° Southeast 595 685 34,900  Descending Albuquerque Center
09:31PM 31.3350 -103.1172 111° Southeast 589 678 35,000  Climbing Albuquerque Center
09:32PM 31.2628 -102.9072 112° Southeast 586 674 35,000 -60 Level Albuquerque Center
09:33PM 31.2042 -102.7356 112° Southeast 577 664 34,900  Descending Albuquerque Center
09:34PM 31.1442 -102.5650 112° Southeast 576 663 35,000  Climbing Albuquerque Center
09:35PM 31.0878 -102.3950 111° Southeast 575 662 35,000  Level Albuquerque Center
09:36PM 31.0306 -102.2308 112° Southeast 558 642 35,000 -60 Level Albuquerque Center
09:37PM 30.9619 -102.0389 113° Southeast 550 633 34,900  Descending Albuquerque Center
09:38PM 30.9047 -101.8744 112° Southeast 550 633 35,000  Climbing Albuquerque Center
09:40PM 30.7789 -101.5169 112° Southeast 563 648 35,000  Level Houston Center
09:41PM 30.7164 -101.3444 113° Southeast 575 662 35,000  Level Houston Center
09:42PM 30.6550 -101.1708 112° Southeast 581 669 35,000  Level Houston Center
09:43PM 30.5825 -100.9619 112° Southeast 585 673 35,000  Level Houston Center
09:44PM 30.5192 -100.7903 113° Southeast 579 666 35,000 -60 Level Houston Center
09:45PM 30.4564 -100.6178 113° Southeast 579 666 34,900 -60 Descending Houston Center
09:46PM 30.3958 -100.4494 113° Southeast 570 656 34,900  Level Houston Center
09:47PM 30.3336 -100.2822 113° Southeast 561 646 35,000  Climbing Houston Center
09:48PM 30.2728 -100.1164 113° Southeast 555 639 35,000 -60 Level Houston Center
09:49PM 30.2114 -99.9525 113° Southeast 548 631 34,900 -60 Descending Houston Center
09:50PM 30.1522 -99.7925 113° Southeast 540 621 34,900  Level Houston Center
09:51PM 30.0917 -99.6364 114° Southeast 532 612 35,000 -540 Climbing Houston Center
09:52PM 30.0344 -99.4808 113° Southeast 526 605 33,900 -1,440 Descending Houston Center
09:53PM 29.9767 -99.3281 114° Southeast 519 597 32,100 -1,440 Descending Houston Center
09:54PM 29.9181 -99.1742 114° Southeast 524 603 31,100 -600 Descending Houston Center
09:55PM 29.8486 -98.9931 114° Southeast 537 618 31,000 -60 Descending Houston Center
09:56PM 29.8097 -98.8100 104° East 547 629 31,000  Level Houston Center
09:57PM 29.7950 -98.6342 95° East 550 633 31,000  Level Houston Center
09:58PM 29.7789 -98.4628 96° East 551 634 31,000  Level Houston Center
09:59PM 29.7614 -98.2803 96° East 554 638 31,000  Level Houston Center
10:00PM 29.7442 -98.1028 96° East 555 639 31,000  Level Houston Center
10:01PM 29.7258 -97.9133 96° East 553 636 31,000 -60 Level Houston Center
10:02PM 29.7103 -97.7567 96° East 559 643 30,900 -180 Descending Houston Center
10:03PM 29.6931 -97.5811 96° East 555 639 30,700 -600 Descending Houston Center
10:05PM 29.6753 -97.4056 97° East 554 638 29,700 -1,680 Descending Houston Center
10:06PM 29.6575 -97.2278 97° East 557 641 27,400 -2,640 Descending Houston Center
10:07PM 29.6400 -97.0500 96° East 556 640 24,400 -2,640 Descending Houston Center
10:08PM 29.6214 -96.8797 97° East 536 617 22,000 -2,400 Descending Houston Center
10:09PM 29.6056 -96.7236 97° East 499 574 19,600 -2,640 Descending Houston Center
10:09PM 29.5894 -96.5889 98° East 432 497 17,200 -2,640 Descending Houston Center
10:11PM 29.5750 -96.4394 96° East 420 483 14,500 -2,460 Descending Houston Center
10:12PM 29.5572 -96.3044 99° East 409 471 12,000 -2,280 Descending Houston Center
10:13PM 29.5489 -96.1806 94° East 390 449 10,000 -1,140 Descending Houston Center
10:14PM 29.6011 -96.0811 59° Northeast 328 377 9,600 -660 Descending Houston Center
10:15PM 29.6758 -96.0219 35° Northeast 330 380 8,700 -900 Descending Houston Center
10:16PM 29.7564 -95.9578 35° Northeast 326 375 7,800 -900 Descending Houston Center
10:17PM 29.8067 -95.8869 51° Northeast 304 350 7,000 -780 Descending Houston Center
10:18PM 29.8589 -95.8111 52° Northeast 301 346 6,400 -960 Descending Houston Center
10:19PM 29.9033 -95.7217 60° Northeast 291 335 5,000 -1,320 Descending Houston Center
10:20PM 29.9422 -95.6400 61° Northeast 290 334 3,700 -1,080 Descending Houston Center
10:21PM 29.9758 -95.5686 61° Northeast 274 315 3,000 -780 Descending Houston Center